sensor_id;sensor_type;location;lat;lon;timestamp;pressure;altitude;pressure_sealevel;temperature;humidity
54666;BME280;40566;50.006;36.180;2023-06-26T00:00:29;99236.16;;;18.99;61.74
54666;BME280;40566;50.006;36.180;2023-06-26T00:05:30;99229.38;;;18.97;62.04
54666;BME280;40566;50.006;36.180;2023-06-26T00:10:31;99226.34;;;18.90;62.01
54666;BME280;40566;50.006;36.180;2023-06-26T00:15:31;99231.81;;;18.87;62.12
54666;BME280;40566;50.006;36.180;2023-06-26T00:20:32;99239.47;;;18.90;62.53
54666;BME280;40566;50.006;36.180;2023-06-26T00:25:34;99227.72;;;18.83;62.55
54666;BME280;40566;50.006;36.180;2023-06-26T00:30:35;99228.94;;;18.77;62.70
54666;BME280;40566;50.006;36.180;2023-06-26T00:35:35;99221.63;;;18.70;63.02
54666;BME280;40566;50.006;36.180;2023-06-26T00:40:36;99221.84;;;18.67;63.39
54666;BME280;40566;50.006;36.180;2023-06-26T00:45:36;99210.44;;;18.55;63.95
54666;BME280;40566;50.006;36.180;2023-06-26T00:50:37;99208.66;;;18.55;64.15
54666;BME280;40566;50.006;36.180;2023-06-26T00:55:38;99209.94;;;18.37;65.25
54666;BME280;40566;50.006;36.180;2023-06-26T01:00:39;99201.06;;;18.27;65.91
54666;BME280;40566;50.006;36.180;2023-06-26T01:05:39;99196.63;;;18.14;66.73
54666;BME280;40566;50.006;36.180;2023-06-26T01:10:40;99189.00;;;18.11;66.99
54666;BME280;40566;50.006;36.180;2023-06-26T01:15:41;99185.66;;;18.09;67.20
54666;BME280;40566;50.006;36.180;2023-06-26T01:20:42;99185.66;;;18.09;67.48
54666;BME280;40566;50.006;36.180;2023-06-26T01:31:00;99178.59;;;17.97;67.94
54666;BME280;40566;50.006;36.180;2023-06-26T01:36:01;99178.94;;;17.92;68.18
54666;BME280;40566;50.006;36.180;2023-06-26T01:41:03;99152.13;;;17.89;68.13
54666;BME280;40566;50.006;36.180;2023-06-26T01:51:39;99160.69;;;17.78;68.69
54666;BME280;40566;50.006;36.180;2023-06-26T01:56:42;99171.03;;;17.79;68.92
54666;BME280;40566;50.006;36.180;2023-06-26T02:01:43;99157.41;;;17.74;68.89
54666;BME280;40566;50.006;36.180;2023-06-26T02:06:44;99154.81;;;17.61;69.58
54666;BME280;40566;50.006;36.180;2023-06-26T02:11:44;99162.09;;;17.56;69.85
54666;BME280;40566;50.006;36.180;2023-06-26T02:16:45;99156.97;;;17.55;70.31
54666;BME280;40566;50.006;36.180;2023-06-26T02:21:45;99155.09;;;17.57;70.08
54666;BME280;40566;50.006;36.180;2023-06-26T02:26:46;99150.91;;;17.54;70.02
54666;BME280;40566;50.006;36.180;2023-06-26T02:31:46;99152.25;;;17.47;70.61
54666;BME280;40566;50.006;36.180;2023-06-26T02:36:47;99148.38;;;17.40;70.69
54666;BME280;40566;50.006;36.180;2023-06-26T02:41:48;99145.84;;;17.38;70.60
54666;BME280;40566;50.006;36.180;2023-06-26T02:46:48;99144.38;;;17.34;70.85
54666;BME280;40566;50.006;36.180;2023-06-26T02:51:49;99148.13;;;17.30;71.06
54666;BME280;40566;50.006;36.180;2023-06-26T02:56:49;99137.28;;;17.36;70.86
54666;BME280;40566;50.006;36.180;2023-06-26T03:01:50;99132.03;;;17.36;71.24
54666;BME280;40566;50.006;36.180;2023-06-26T03:06:51;99122.22;;;17.40;71.22
54666;BME280;40566;50.006;36.180;2023-06-26T03:11:51;99115.41;;;17.37;70.99
54666;BME280;40566;50.006;36.180;2023-06-26T03:16:53;99111.88;;;17.38;71.28
54666;BME280;40566;50.006;36.180;2023-06-26T03:21:57;99097.09;;;17.37;71.67
54666;BME280;40566;50.006;36.180;2023-06-26T03:26:57;99112.06;;;17.35;71.80
54666;BME280;40566;50.006;36.180;2023-06-26T03:31:58;99100.84;;;17.33;72.15
54666;BME280;40566;50.006;36.180;2023-06-26T03:36:59;99098.78;;;17.38;72.04
54666;BME280;40566;50.006;36.180;2023-06-26T03:41:59;99096.19;;;17.38;72.04
54666;BME280;40566;50.006;36.180;2023-06-26T03:47:01;99097.09;;;17.37;72.12
54666;BME280;40566;50.006;36.180;2023-06-26T03:52:01;99078.19;;;17.34;72.35
54666;BME280;40566;50.006;36.180;2023-06-26T03:57:02;99083.75;;;17.42;72.35
54666;BME280;40566;50.006;36.180;2023-06-26T04:02:03;99073.28;;;17.42;72.10
54666;BME280;40566;50.006;36.180;2023-06-26T04:07:03;99063.56;;;17.44;72.28
54666;BME280;40566;50.006;36.180;2023-06-26T04:12:05;99047.22;;;17.40;72.47
54666;BME280;40566;50.006;36.180;2023-06-26T04:17:06;99047.22;;;17.40;72.26
54666;BME280;40566;50.006;36.180;2023-06-26T04:22:07;99042.66;;;17.44;72.25
54666;BME280;40566;50.006;36.180;2023-06-26T04:27:07;99033.94;;;17.43;72.24
54666;BME280;40566;50.006;36.180;2023-06-26T04:32:08;99040.03;;;17.44;72.26
54666;BME280;40566;50.006;36.180;2023-06-26T04:37:08;99031.44;;;17.42;72.31
54666;BME280;40566;50.006;36.180;2023-06-26T04:42:10;99018.16;;;17.45;72.25
54666;BME280;40566;50.006;36.180;2023-06-26T04:47:12;99020.03;;;17.43;72.33
54666;BME280;40566;50.006;36.180;2023-06-26T04:52:15;99023.28;;;17.47;71.89
54666;BME280;40566;50.006;36.180;2023-06-26T04:57:15;99014.72;;;17.44;71.97
54666;BME280;40566;50.006;36.180;2023-06-26T05:02:18;99018.25;;;17.43;71.92
54666;BME280;40566;50.006;36.180;2023-06-26T05:07:18;99018.97;;;17.45;71.89
54666;BME280;40566;50.006;36.180;2023-06-26T05:12:19;99027.59;;;17.48;71.72
54666;BME280;40566;50.006;36.180;2023-06-26T05:17:20;99027.38;;;17.51;71.68
54666;BME280;40566;50.006;36.180;2023-06-26T05:22:21;99033.41;;;17.51;71.94
54666;BME280;40566;50.006;36.180;2023-06-26T05:27:22;99026.63;;;17.49;71.64
54666;BME280;40566;50.006;36.180;2023-06-26T05:32:23;99030.94;;;17.50;72.06
54666;BME280;40566;50.006;36.180;2023-06-26T05:37:26;99012.31;;;17.54;71.70
54666;BME280;40566;50.006;36.180;2023-06-26T05:42:28;99021.81;;;17.55;71.88
54666;BME280;40566;50.006;36.180;2023-06-26T05:47:29;99022.66;;;17.56;71.79
54666;BME280;40566;50.006;36.180;2023-06-26T05:52:30;99003.50;;;17.55;71.98
54666;BME280;40566;50.006;36.180;2023-06-26T05:57:30;99019.63;;;17.49;72.18
54666;BME280;40566;50.006;36.180;2023-06-26T06:02:31;99015.34;;;17.48;72.28
54666;BME280;40566;50.006;36.180;2023-06-26T06:07:35;99005.38;;;17.53;72.20
54666;BME280;40566;50.006;36.180;2023-06-26T06:12:36;99013.38;;;17.52;72.46
54666;BME280;40566;50.006;36.180;2023-06-26T06:17:36;99016.72;;;17.54;72.13
54666;BME280;40566;50.006;36.180;2023-06-26T06:22:37;99013.13;;;17.55;72.44
54666;BME280;40566;50.006;36.180;2023-06-26T06:27:38;99009.47;;;17.57;72.50
54666;BME280;40566;50.006;36.180;2023-06-26T06:32:38;99014.91;;;17.54;72.38
54666;BME280;40566;50.006;36.180;2023-06-26T06:37:39;99008.13;;;17.52;72.81
54666;BME280;40566;50.006;36.180;2023-06-26T06:42:39;99016.72;;;17.54;72.34
54666;BME280;40566;50.006;36.180;2023-06-26T06:47:40;99008.53;;;17.58;72.68
54666;BME280;40566;50.006;36.180;2023-06-26T06:52:42;98990.63;;;17.65;72.60
54666;BME280;40566;50.006;36.180;2023-06-26T06:57:43;99005.81;;;17.60;72.83
54666;BME280;40566;50.006;36.180;2023-06-26T07:02:44;98997.25;;;17.58;72.78
54666;BME280;40566;50.006;36.180;2023-06-26T07:07:45;99003.09;;;17.61;73.12
54666;BME280;40566;50.006;36.180;2023-06-26T07:12:46;98993.16;;;17.67;72.79
54666;BME280;40566;50.006;36.180;2023-06-26T07:17:47;98999.13;;;17.56;73.34
54666;BME280;40566;50.006;36.180;2023-06-26T07:22:48;98999.53;;;17.62;73.15
54666;BME280;40566;50.006;36.180;2023-06-26T07:27:48;99003.72;;;17.65;73.17
54666;BME280;40566;50.006;36.180;2023-06-26T07:32:49;99000.16;;;17.66;73.19
54666;BME280;40566;50.006;36.180;2023-06-26T07:37:50;98993.69;;;17.72;73.11
54666;BME280;40566;50.006;36.180;2023-06-26T07:42:50;98992.03;;;17.83;73.00
54666;BME280;40566;50.006;36.180;2023-06-26T07:47:51;98994.19;;;17.90;72.70
54666;BME280;40566;50.006;36.180;2023-06-26T07:52:52;98999.09;;;17.81;72.80
54666;BME280;40566;50.006;36.180;2023-06-26T07:57:53;98999.75;;;17.72;72.88
54666;BME280;40566;50.006;36.180;2023-06-26T08:02:55;98990.75;;;17.63;73.14
54666;BME280;40566;50.006;36.180;2023-06-26T08:07:56;99002.16;;;17.62;73.00
54666;BME280;40566;50.006;36.180;2023-06-26T08:12:56;98994.31;;;17.62;73.00
54666;BME280;40566;50.006;36.180;2023-06-26T08:17:57;98989.91;;;17.63;73.19
54666;BME280;40566;50.006;36.180;2023-06-26T08:22:58;98994.09;;;17.66;73.41
54666;BME280;40566;50.006;36.180;2023-06-26T08:27:58;98988.34;;;17.60;73.05
54666;BME280;40566;50.006;36.180;2023-06-26T08:32:59;98995.38;;;17.60;73.33
54666;BME280;40566;50.006;36.180;2023-06-26T08:38:01;98983.75;;;17.64;73.00
54666;BME280;40566;50.006;36.180;2023-06-26T08:43:02;98981.03;;;17.66;73.03
54666;BME280;40566;50.006;36.180;2023-06-26T08:48:07;98980.38;;;17.75;72.97
54666;BME280;40566;50.006;36.180;2023-06-26T08:58:13;98983.94;;;17.74;73.17
54666;BME280;40566;50.006;36.180;2023-06-26T09:03:14;98996.06;;;17.75;73.57
54666;BME280;40566;50.006;36.180;2023-06-26T09:08:15;99002.66;;;17.80;73.23
54666;BME280;40566;50.006;36.180;2023-06-26T09:13:16;98996.59;;;17.80;73.40
54666;BME280;40566;50.006;36.180;2023-06-26T09:18:18;98986.97;;;17.80;73.06
54666;BME280;40566;50.006;36.180;2023-06-26T09:23:22;98993.06;;;17.68;73.67
54666;BME280;40566;50.006;36.180;2023-06-26T09:28:27;98996.41;;;17.70;73.72
54666;BME280;40566;50.006;36.180;2023-06-26T09:33:33;98975.03;;;17.76;73.56
54666;BME280;40566;50.006;36.180;2023-06-26T09:38:35;98983.41;;;17.81;73.35
54666;BME280;40566;50.006;36.180;2023-06-26T09:43:45;98965.91;;;17.95;73.24
54666;BME280;40566;50.006;36.180;2023-06-26T09:48:46;98974.50;;;17.97;73.13
54666;BME280;40566;50.006;36.180;2023-06-26T09:53:48;98974.00;;;17.92;73.45
54666;BME280;40566;50.006;36.180;2023-06-26T09:58:49;98959.38;;;17.89;73.49
54666;BME280;40566;50.006;36.180;2023-06-26T10:03:51;98958.28;;;17.92;73.07
54666;BME280;40566;50.006;36.180;2023-06-26T10:08:52;98955.16;;;17.87;73.37
54666;BME280;40566;50.006;36.180;2023-06-26T10:13:54;98941.16;;;17.88;73.33
54666;BME280;40566;50.006;36.180;2023-06-26T10:18:58;98953.28;;;17.89;72.96
54666;BME280;40566;50.006;36.180;2023-06-26T10:24:02;98938.00;;;17.95;72.68
54666;BME280;40566;50.006;36.180;2023-06-26T10:29:05;98947.84;;;17.92;72.72
54666;BME280;40566;50.006;36.180;2023-06-26T10:34:07;98950.94;;;17.97;72.75
54666;BME280;40566;50.006;36.180;2023-06-26T10:39:07;98949.56;;;18.04;72.70
54666;BME280;40566;50.006;36.180;2023-06-26T10:44:13;98953.63;;;18.08;72.80
54666;BME280;40566;50.006;36.180;2023-06-26T10:49:17;98961.28;;;18.11;72.39
54666;BME280;40566;50.006;36.180;2023-06-26T10:54:19;98959.94;;;18.06;72.46
54666;BME280;40566;50.006;36.180;2023-06-26T10:59:22;98958.25;;;18.04;72.53
54666;BME280;40566;50.006;36.180;2023-06-26T11:04:43;98944.88;;;17.96;72.64
54666;BME280;40566;50.006;36.180;2023-06-26T11:10:09;98941.94;;;18.01;73.04
54666;BME280;40566;50.006;36.180;2023-06-26T11:15:12;98940.56;;;18.08;72.88
54666;BME280;40566;50.006;36.180;2023-06-26T11:20:14;98926.19;;;18.14;73.24
54666;BME280;40566;50.006;36.180;2023-06-26T11:25:16;98931.75;;;18.33;72.71
54666;BME280;40566;50.006;36.180;2023-06-26T11:30:24;98914.53;;;18.42;72.92
54666;BME280;40566;50.006;36.180;2023-06-26T11:35:25;98916.13;;;18.45;72.93
54666;BME280;40566;50.006;36.180;2023-06-26T11:40:33;98914.31;;;18.45;72.98
54666;BME280;40566;50.006;36.180;2023-06-26T11:45:34;98923.50;;;18.51;72.67
54666;BME280;40566;50.006;36.180;2023-06-26T11:50:37;98916.38;;;18.53;72.53
54666;BME280;40566;50.006;36.180;2023-06-26T11:55:42;98916.84;;;18.47;72.53
54666;BME280;40566;50.006;36.180;2023-06-26T12:00:47;98923.66;;;18.36;72.90
54666;BME280;40566;50.006;36.180;2023-06-26T12:05:48;98931.16;;;18.30;73.29
54666;BME280;40566;50.006;36.180;2023-06-26T12:10:50;98929.69;;;18.26;73.37
54666;BME280;40566;50.006;36.180;2023-06-26T12:15:50;98910.00;;;18.33;73.40
54666;BME280;40566;50.006;36.180;2023-06-26T12:20:52;98910.88;;;18.45;73.11
54666;BME280;40566;50.006;36.180;2023-06-26T12:25:53;98914.69;;;18.52;72.99
54666;BME280;40566;50.006;36.180;2023-06-26T12:31:13;98902.31;;;18.54;73.04
54666;BME280;40566;50.006;36.180;2023-06-26T12:36:14;98901.28;;;18.56;73.40
54666;BME280;40566;50.006;36.180;2023-06-26T12:41:15;98902.72;;;18.60;73.35
54666;BME280;40566;50.006;36.180;2023-06-26T12:46:16;98902.25;;;18.67;73.22
54666;BME280;40566;50.006;36.180;2023-06-26T12:51:17;98900.97;;;18.72;73.19
54666;BME280;40566;50.006;36.180;2023-06-26T12:56:17;98909.88;;;18.70;73.09
54666;BME280;40566;50.006;36.180;2023-06-26T13:01:20;98905.22;;;18.73;73.12
54666;BME280;40566;50.006;36.180;2023-06-26T13:06:20;98901.69;;;18.74;73.02
54666;BME280;40566;50.006;36.180;2023-06-26T13:11:21;98895.31;;;18.66;73.40
54666;BME280;40566;50.006;36.180;2023-06-26T13:16:23;98892.03;;;18.75;73.28
54666;BME280;40566;50.006;36.180;2023-06-26T13:21:23;98885.53;;;18.80;73.31
54666;BME280;40566;50.006;36.180;2023-06-26T13:26:24;98890.66;;;18.82;72.91
54666;BME280;40566;50.006;36.180;2023-06-26T13:31:26;98875.13;;;18.79;73.40
54666;BME280;40566;50.006;36.180;2023-06-26T13:36:27;98871.88;;;18.75;73.43
54666;BME280;40566;50.006;36.180;2023-06-26T13:41:27;98866.53;;;18.77;73.27
54666;BME280;40566;50.006;36.180;2023-06-26T13:46:29;98880.34;;;18.79;73.05
54666;BME280;40566;50.006;36.180;2023-06-26T13:51:29;98872.59;;;18.77;73.31
54666;BME280;40566;50.006;36.180;2023-06-26T13:56:30;98866.75;;;18.74;73.29
54666;BME280;40566;50.006;36.180;2023-06-26T14:01:30;98865.09;;;18.73;73.31
54666;BME280;40566;50.006;36.180;2023-06-26T14:06:32;98870.25;;;18.74;73.17
54666;BME280;40566;50.006;36.180;2023-06-26T14:11:32;98865.56;;;18.67;73.35
54666;BME280;40566;50.006;36.180;2023-06-26T14:16:34;98851.50;;;18.68;73.68
54666;BME280;40566;50.006;36.180;2023-06-26T14:21:34;98860.09;;;18.70;73.69
54666;BME280;40566;50.006;36.180;2023-06-26T14:26:35;98864.13;;;18.74;73.64
54666;BME280;40566;50.006;36.180;2023-06-26T14:31:37;98859.50;;;18.77;73.24
54666;BME280;40566;50.006;36.180;2023-06-26T14:36:37;98845.81;;;18.74;73.40
54666;BME280;40566;50.006;36.180;2023-06-26T14:41:38;98846.88;;;18.71;73.61
54666;BME280;40566;50.006;36.180;2023-06-26T14:46:38;98851.91;;;18.74;73.42
54666;BME280;40566;50.006;36.180;2023-06-26T14:51:39;98851.28;;;18.71;73.88
54666;BME280;40566;50.006;36.180;2023-06-26T14:56:40;98852.47;;;18.67;73.89
54666;BME280;40566;50.006;36.180;2023-06-26T15:01:43;98845.81;;;18.74;73.76
54666;BME280;40566;50.006;36.180;2023-06-26T15:06:44;98848.41;;;18.74;73.75
54666;BME280;40566;50.006;36.180;2023-06-26T15:11:44;98843.31;;;18.72;73.58
54666;BME280;40566;50.006;36.180;2023-06-26T15:16:45;98854.53;;;18.74;73.43
54666;BME280;40566;50.006;36.180;2023-06-26T15:21:46;98852.00;;;18.73;73.57
54666;BME280;40566;50.006;36.180;2023-06-26T15:26:46;98852.13;;;18.71;73.60
54666;BME280;40566;50.006;36.180;2023-06-26T15:31:47;98859.16;;;18.71;73.72
54666;BME280;40566;50.006;36.180;2023-06-26T15:36:48;98851.41;;;18.69;73.50
54666;BME280;40566;50.006;36.180;2023-06-26T15:41:48;98851.41;;;18.69;73.38
54666;BME280;40566;50.006;36.180;2023-06-26T15:46:49;98840.09;;;18.69;73.48
54666;BME280;40566;50.006;36.180;2023-06-26T15:51:50;98832.34;;;18.67;73.65
54666;BME280;40566;50.006;36.180;2023-06-26T15:56:51;98842.81;;;18.67;73.87
54666;BME280;40566;50.006;36.180;2023-06-26T16:01:51;98840.31;;;18.66;73.98
54666;BME280;40566;50.006;36.180;2023-06-26T16:06:52;98826.75;;;18.60;74.34
54666;BME280;40566;50.006;36.180;2023-06-26T16:11:52;98829.84;;;18.54;74.43
54666;BME280;40566;50.006;36.180;2023-06-26T16:16:53;98834.22;;;18.54;74.30
54666;BME280;40566;50.006;36.180;2023-06-26T16:21:54;98831.50;;;18.55;74.26
54666;BME280;40566;50.006;36.180;2023-06-26T16:26:54;98828.75;;;18.57;74.47
54666;BME280;40566;50.006;36.180;2023-06-26T16:31:55;98835.06;;;18.54;74.39
54666;BME280;40566;50.006;36.180;2023-06-26T16:36:55;98828.38;;;18.50;74.74
54666;BME280;40566;50.006;36.180;2023-06-26T16:41:56;98824.94;;;18.50;74.66
54666;BME280;40566;50.006;36.180;2023-06-26T16:46:57;98824.22;;;18.48;74.95
54666;BME280;40566;50.006;36.180;2023-06-26T16:51:58;98827.28;;;18.41;75.10
54666;BME280;40566;50.006;36.180;2023-06-26T16:57:01;98828.38;;;18.39;75.48
54666;BME280;40566;50.006;36.180;2023-06-26T17:02:01;98832.78;;;18.38;75.50
54666;BME280;40566;50.006;36.180;2023-06-26T17:07:02;98821.78;;;18.33;75.55
54666;BME280;40566;50.006;36.180;2023-06-26T17:12:03;98816.91;;;18.29;75.73
54666;BME280;40566;50.006;36.180;2023-06-26T17:17:04;98810.72;;;18.30;75.82
54666;BME280;40566;50.006;36.180;2023-06-26T17:22:05;98824.41;;;18.33;75.63
54666;BME280;40566;50.006;36.180;2023-06-26T17:27:12;98815.84;;;18.31;75.83
54666;BME280;40566;50.006;36.180;2023-06-26T17:32:14;98823.91;;;18.28;75.98
54666;BME280;40566;50.006;36.180;2023-06-26T17:37:17;98812.84;;;18.24;75.98
54666;BME280;40566;50.006;36.180;2023-06-26T17:42:17;98816.75;;;18.19;76.47
54666;BME280;40566;50.006;36.180;2023-06-26T17:47:18;98817.47;;;18.21;76.42
54666;BME280;40566;50.006;36.180;2023-06-26T17:52:19;98819.84;;;18.24;76.46
54666;BME280;40566;50.006;36.180;2023-06-26T17:57:19;98827.59;;;18.26;76.39
54666;BME280;40566;50.006;36.180;2023-06-26T18:02:20;98826.06;;;18.23;76.25
54666;BME280;40566;50.006;36.180;2023-06-26T18:07:20;98826.16;;;18.21;76.45
54666;BME280;40566;50.006;36.180;2023-06-26T18:12:22;98826.38;;;18.18;76.66
54666;BME280;40566;50.006;36.180;2023-06-26T18:17:23;98835.91;;;18.19;76.65
54666;BME280;40566;50.006;36.180;2023-06-26T18:22:23;98842.22;;;18.17;76.66
54666;BME280;40566;50.006;36.180;2023-06-26T18:27:24;98840.44;;;18.17;76.81
54666;BME280;40566;50.006;36.180;2023-06-26T18:32:25;98829.13;;;18.17;76.83
54666;BME280;40566;50.006;36.180;2023-06-26T18:37:26;98827.06;;;18.09;76.77
54666;BME280;40566;50.006;36.180;2023-06-26T18:42:26;98831.09;;;18.02;76.79
54666;BME280;40566;50.006;36.180;2023-06-26T18:47:27;98818.97;;;18.01;76.86
54666;BME280;40566;50.006;36.180;2023-06-26T18:52:27;98813.22;;;17.96;76.94
54666;BME280;40566;50.006;36.180;2023-06-26T18:57:28;98817.00;;;17.92;77.09
54666;BME280;40566;50.006;36.180;2023-06-26T19:02:29;98805.94;;;17.88;77.24
54666;BME280;40566;50.006;36.180;2023-06-26T19:07:29;98800.16;;;17.83;77.19
54666;BME280;40566;50.006;36.180;2023-06-26T19:12:30;98799.56;;;17.79;77.28
54666;BME280;40566;50.006;36.180;2023-06-26T19:17:30;98802.72;;;17.72;77.00
54666;BME280;40566;50.006;36.180;2023-06-26T19:22:31;98807.44;;;17.67;76.79
54666;BME280;40566;50.006;36.180;2023-06-26T19:27:32;98794.09;;;17.58;76.74
54666;BME280;40566;50.006;36.180;2023-06-26T19:32:32;98799.06;;;17.50;76.77
54666;BME280;40566;50.006;36.180;2023-06-26T19:37:33;98789.13;;;17.42;76.59
54666;BME280;40566;50.006;36.180;2023-06-26T19:42:33;98800.22;;;17.33;76.64
54666;BME280;40566;50.006;36.180;2023-06-26T19:47:34;98792.09;;;17.25;76.93
54666;BME280;40566;50.006;36.180;2023-06-26T19:52:35;98792.22;;;17.23;77.14
54666;BME280;40566;50.006;36.180;2023-06-26T19:57:36;98784.59;;;17.20;76.68
54666;BME280;40566;50.006;36.180;2023-06-26T20:02:37;98775.75;;;17.10;76.30
54666;BME280;40566;50.006;36.180;2023-06-26T20:07:38;98763.94;;;17.04;76.58
54666;BME280;40566;50.006;36.180;2023-06-26T20:12:39;98770.53;;;16.97;76.43
54666;BME280;40566;50.006;36.180;2023-06-26T20:17:39;98770.25;;;16.89;76.44
54666;BME280;40566;50.006;36.180;2023-06-26T20:22:40;98769.72;;;16.84;76.35
54666;BME280;40566;50.006;36.180;2023-06-26T20:27:41;98755.16;;;16.80;76.52
54666;BME280;40566;50.006;36.180;2023-06-26T20:32:41;98758.09;;;16.75;76.68
54666;BME280;40566;50.006;36.180;2023-06-26T20:37:42;98760.19;;;16.70;76.53
54666;BME280;40566;50.006;36.180;2023-06-26T20:42:42;98754.34;;;16.66;76.20
54666;BME280;40566;50.006;36.180;2023-06-26T20:47:44;98737.00;;;16.65;76.23
54666;BME280;40566;50.006;36.180;2023-06-26T20:52:45;98747.66;;;16.62;76.46
54666;BME280;40566;50.006;36.180;2023-06-26T20:57:46;98752.88;;;16.62;76.34
54666;BME280;40566;50.006;36.180;2023-06-26T21:02:47;98754.56;;;16.63;76.55
54666;BME280;40566;50.006;36.180;2023-06-26T21:07:47;98745.91;;;16.63;76.79
54666;BME280;40566;50.006;36.180;2023-06-26T21:12:48;98750.78;;;16.68;76.99
54666;BME280;40566;50.006;36.180;2023-06-26T21:17:49;98754.13;;;16.70;76.66
54666;BME280;40566;50.006;36.180;2023-06-26T21:22:49;98735.53;;;16.74;77.12
54666;BME280;40566;50.006;36.180;2023-06-26T21:27:50;98742.44;;;16.75;77.24
54666;BME280;40566;50.006;36.180;2023-06-26T21:32:50;98742.66;;;16.85;77.11
54666;BME280;40566;50.006;36.180;2023-06-26T21:37:51;98741.84;;;16.84;77.23
54666;BME280;40566;50.006;36.180;2023-06-26T21:42:51;98724.78;;;16.92;77.29
54666;BME280;40566;50.006;36.180;2023-06-26T21:47:52;98730.63;;;16.95;77.20
54666;BME280;40566;50.006;36.180;2023-06-26T21:52:53;98727.06;;;16.96;77.18
54666;BME280;40566;50.006;36.180;2023-06-26T21:57:53;98726.34;;;16.94;77.54
54666;BME280;40566;50.006;36.180;2023-06-26T22:02:54;98730.41;;;16.98;77.51
54666;BME280;40566;50.006;36.180;2023-06-26T22:07:54;98727.56;;;17.01;77.57
54666;BME280;40566;50.006;36.180;2023-06-26T22:12:55;98728.41;;;17.02;77.44
54666;BME280;40566;50.006;36.180;2023-06-26T22:17:56;98728.19;;;17.05;77.83
54666;BME280;40566;50.006;36.180;2023-06-26T22:22:57;98734.69;;;16.99;78.29
54666;BME280;40566;50.006;36.180;2023-06-26T22:27:57;98733.75;;;17.00;78.21
54666;BME280;40566;50.006;36.180;2023-06-26T22:32:58;98722.34;;;17.01;77.96
54666;BME280;40566;50.006;36.180;2023-06-26T22:37:58;98720.34;;;17.05;78.25
54666;BME280;40566;50.006;36.180;2023-06-26T22:43:00;98716.69;;;17.08;78.15
54666;BME280;40566;50.006;36.180;2023-06-26T22:48:03;98714.31;;;17.04;78.41
54666;BME280;40566;50.006;36.180;2023-06-26T22:53:04;98717.63;;;17.07;78.24
54666;BME280;40566;50.006;36.180;2023-06-26T22:58:05;98716.69;;;17.08;78.01
54666;BME280;40566;50.006;36.180;2023-06-26T23:03:05;98707.09;;;17.08;78.17
54666;BME280;40566;50.006;36.180;2023-06-26T23:08:06;98707.69;;;17.12;77.98
54666;BME280;40566;50.006;36.180;2023-06-26T23:13:07;98705.06;;;17.12;77.84
54666;BME280;40566;50.006;36.180;2023-06-26T23:18:08;98688.28;;;17.03;78.32
54666;BME280;40566;50.006;36.180;2023-06-26T23:23:09;98705.03;;;17.00;78.29
54666;BME280;40566;50.006;36.180;2023-06-26T23:28:09;98697.28;;;16.99;78.24
54666;BME280;40566;50.006;36.180;2023-06-26T23:33:10;98690.28;;;16.99;78.12
54666;BME280;40566;50.006;36.180;2023-06-26T23:38:10;98694.56;;;17.00;78.27
54666;BME280;40566;50.006;36.180;2023-06-26T23:43:11;98697.78;;;17.04;78.36
54666;BME280;40566;50.006;36.180;2023-06-26T23:48:12;98685.56;;;17.04;78.36
54666;BME280;40566;50.006;36.180;2023-06-26T23:53:13;98691.50;;;17.07;78.19
54666;BME280;40566;50.006;36.180;2023-06-26T23:58:14;98693.50;;;17.03;78.51
